createdAt,value
2018-12-09T00:00:25.757Z,98774.89
2018-12-09T00:02:54.177Z,98773.11
2018-12-09T00:05:22.337Z,98784.42
2018-12-09T00:07:50.824Z,98790.08
2018-12-09T00:10:18.539Z,98791.41
2018-12-09T00:12:46.372Z,98783.55
2018-12-09T00:15:14.131Z,98783.93
2018-12-09T00:17:41.972Z,98790.90
2018-12-09T00:20:10.367Z,98795.34
2018-12-09T00:22:38.175Z,98792.23
2018-12-09T00:25:06.209Z,98799.63
2018-12-09T00:27:33.943Z,98780.45
2018-12-09T00:30:01.693Z,98782.58
2018-12-09T00:32:29.473Z,98788.68
2018-12-09T00:34:57.227Z,98796.97
2018-12-09T00:37:24.963Z,98795.19
2018-12-09T00:39:52.753Z,98788.22
2018-12-09T00:42:20.651Z,98787.41
2018-12-09T00:44:48.379Z,98790.45
2018-12-09T00:47:16.152Z,98792.66
2018-12-09T00:49:43.953Z,98794.82
2018-12-09T00:52:12.214Z,98794.77
2018-12-09T00:54:40.169Z,98802.97
2018-12-09T00:57:07.958Z,98809.48
2018-12-09T00:59:35.732Z,98809.41
2018-12-09T01:02:08.018Z,98819.05
2018-12-09T01:04:35.774Z,98829.19
2018-12-09T01:07:03.589Z,98823.94
2018-12-09T01:09:31.450Z,98843.99
2018-12-09T01:12:00.286Z,98848.34
2018-12-09T01:14:28.082Z,98833.45
2018-12-09T01:16:55.832Z,98836.81
2018-12-09T01:19:23.516Z,98854.67
2018-12-09T01:21:51.289Z,98847.30
2018-12-09T01:24:19.090Z,98843.27
2018-12-09T01:26:46.877Z,98834.95
2018-12-09T01:29:14.670Z,98836.30
2018-12-09T01:31:42.525Z,98849.37
2018-12-09T01:34:10.863Z,98853.71
2018-12-09T01:36:38.654Z,98848.02
2018-12-09T01:39:06.604Z,98852.73
2018-12-09T01:41:34.398Z,98848.93
2018-12-09T01:44:02.151Z,98847.06
2018-12-09T01:46:30.245Z,98862.91
2018-12-09T01:48:58.099Z,98866.83
2018-12-09T01:51:25.830Z,98861.25
2018-12-09T01:54:10.169Z,98861.73
2018-12-09T01:56:38.352Z,98866.56
2018-12-09T01:59:06.600Z,98863.99
2018-12-09T02:01:34.363Z,98868.67
2018-12-09T02:04:02.118Z,98871.38
2018-12-09T02:06:30.447Z,98871.32
2018-12-09T02:08:58.216Z,98876.92
2018-12-09T02:11:26.231Z,98876.29
2018-12-09T02:13:53.996Z,98877.52
2018-12-09T02:16:21.865Z,98879.80
2018-12-09T02:19:01.386Z,98873.70
2018-12-09T02:21:29.258Z,98881.14
2018-12-09T02:23:57.095Z,98880.19
2018-12-09T02:26:24.881Z,98884.65
2018-12-09T02:28:52.744Z,98876.43
2018-12-09T02:31:20.531Z,98882.95
2018-12-09T02:33:48.913Z,98882.41
2018-12-09T02:36:16.714Z,98873.75
2018-12-09T02:38:44.515Z,98880.78
2018-12-09T02:41:12.297Z,98875.06
2018-12-09T02:43:40.054Z,98876.63
2018-12-09T02:46:07.865Z,98868.45
2018-12-09T02:48:35.609Z,98865.30
2018-12-09T02:51:03.800Z,98872.70
2018-12-09T02:53:32.606Z,98882.03
2018-12-09T02:56:00.463Z,98888.42
2018-12-09T02:58:28.249Z,98894.59
2018-12-09T03:00:56.789Z,98892.28
2018-12-09T03:03:24.565Z,98898.48
2018-12-09T03:05:52.378Z,98904.11
2018-12-09T03:08:20.151Z,98909.35
2018-12-09T03:10:47.907Z,98909.33
2018-12-09T03:13:15.755Z,98909.77
2018-12-09T03:15:43.584Z,98908.84
2018-12-09T03:18:11.347Z,98916.63
2018-12-09T03:20:39.100Z,98912.27
2018-12-09T03:23:06.881Z,98917.91
2018-12-09T03:25:35.069Z,98922.34
2018-12-09T03:28:02.866Z,98925.44
2018-12-09T03:30:30.685Z,98931.95
2018-12-09T03:32:58.506Z,98935.40
2018-12-09T03:35:26.297Z,98937.14
2018-12-09T03:37:54.388Z,98937.73
2018-12-09T03:40:22.214Z,98937.30
2018-12-09T03:42:49.943Z,98938.12
2018-12-09T03:45:17.811Z,98946.83
2018-12-09T03:47:45.579Z,98952.52
2018-12-09T03:50:13.544Z,98956.47
2018-12-09T03:52:41.332Z,98956.68
2018-12-09T03:55:09.116Z,98950.45
2018-12-09T03:57:36.880Z,98958.86
2018-12-09T04:00:05.621Z,98959.70
2018-12-09T04:02:33.445Z,98962.27
2018-12-09T04:05:01.190Z,98968.03
2018-12-09T04:07:28.998Z,98973.65
2018-12-09T04:09:56.841Z,98970.09
2018-12-09T04:12:24.701Z,98971.65
2018-12-09T04:14:52.508Z,98973.63
2018-12-09T04:17:20.275Z,98966.84
2018-12-09T04:19:48.107Z,98970.71
2018-12-09T04:22:15.914Z,98972.05
2018-12-09T04:24:43.772Z,98978.98
2018-12-09T04:27:11.492Z,98978.80
2018-12-09T04:29:39.261Z,98990.64
2018-12-09T04:32:07.013Z,98991.11
2018-12-09T04:34:34.918Z,98994.23
2018-12-09T04:37:02.699Z,98994.48
2018-12-09T04:39:30.400Z,99002.44
2018-12-09T04:41:58.214Z,99000.72
2018-12-09T04:44:26.048Z,99003.93
2018-12-09T04:46:53.931Z,99009.23
2018-12-09T04:49:21.787Z,99016.42
2018-12-09T04:51:56.250Z,99014.68
2018-12-09T04:54:25.164Z,99016.75
2018-12-09T04:56:53.670Z,99012.20
2018-12-09T04:59:22.817Z,99018.78
2018-12-09T05:01:50.618Z,99019.66
2018-12-09T05:04:18.561Z,99023.67
2018-12-09T05:06:46.306Z,99022.77
2018-12-09T05:09:14.216Z,99018.78
2018-12-09T05:11:41.982Z,99016.63
2018-12-09T05:14:09.782Z,99021.83
2018-12-09T05:16:37.589Z,99018.78
2018-12-09T05:19:05.491Z,99018.22
2018-12-09T05:21:33.277Z,99028.33
2018-12-09T05:24:01.120Z,99029.66
2018-12-09T05:26:28.904Z,99028.36
2018-12-09T05:28:56.772Z,99033.66
2018-12-09T05:31:24.650Z,99033.22
2018-12-09T05:33:52.398Z,99040.36
2018-12-09T05:36:20.177Z,99039.09
2018-12-09T05:38:48.013Z,99046.42
2018-12-09T05:41:15.769Z,99048.14
2018-12-09T05:43:43.586Z,99054.28
2018-12-09T05:46:11.382Z,99064.08
2018-12-09T05:48:39.543Z,99072.84
2018-12-09T05:51:07.362Z,99076.78
2018-12-09T05:53:35.126Z,99076.15
2018-12-09T05:56:02.957Z,99078.49
2018-12-09T05:58:32.704Z,99085.42
2018-12-09T06:01:00.468Z,99095.47
2018-12-09T06:03:28.353Z,99093.72
2018-12-09T06:05:56.089Z,99098.06
2018-12-09T06:08:23.834Z,99105.58
2018-12-09T06:10:51.604Z,99104.70
2018-12-09T06:13:21.682Z,99109.55
2018-12-09T06:15:49.510Z,99107.45
2018-12-09T06:18:17.315Z,99106.48
2018-12-09T06:20:45.371Z,99115.56
2018-12-09T06:23:13.244Z,99117.72
2018-12-09T06:25:41.170Z,99129.04
2018-12-09T06:28:08.988Z,99128.13
2018-12-09T06:30:36.833Z,99137.70
2018-12-09T06:33:04.613Z,99145.64
2018-12-09T06:35:32.411Z,99140.83
2018-12-09T06:38:00.204Z,99150.48
2018-12-09T06:40:27.968Z,99149.94
2018-12-09T06:42:55.737Z,99152.56
2018-12-09T06:45:23.492Z,99155.07
2018-12-09T06:47:51.277Z,99161.63
2018-12-09T06:50:19.085Z,99165.16
2018-12-09T06:52:46.861Z,99166.09
2018-12-09T06:55:14.745Z,99164.39
2018-12-09T06:57:42.535Z,99164.35
2018-12-09T07:00:10.526Z,99173.56
2018-12-09T07:02:38.362Z,99188.77
2018-12-09T07:05:07.492Z,99189.36
2018-12-09T07:07:35.272Z,99196.27
2018-12-09T07:10:03.617Z,99212.68
2018-12-09T07:12:31.405Z,99209.19
2018-12-09T07:14:59.206Z,99211.84
2018-12-09T07:17:27.392Z,99219.19
2018-12-09T07:19:55.119Z,99228.92
2018-12-09T07:22:22.890Z,99230.19
2018-12-09T07:24:50.672Z,99237.89
2018-12-09T07:27:18.366Z,99247.18
2018-12-09T07:29:46.157Z,99242.26
2018-12-09T07:32:14.734Z,99247.50
2018-12-09T07:34:42.612Z,99250.20
2018-12-09T07:37:10.406Z,99258.06
2018-12-09T07:39:38.162Z,99259.49
2018-12-09T07:42:05.998Z,99271.68
2018-12-09T07:44:33.796Z,99264.89
2018-12-09T07:47:01.549Z,99272.95
2018-12-09T07:49:29.377Z,99291.34
2018-12-09T07:51:57.145Z,99289.72
2018-12-09T07:54:24.872Z,99296.22
2018-12-09T07:56:52.744Z,99302.77
2018-12-09T07:59:20.500Z,99301.47
2018-12-09T08:01:48.277Z,99311.59
2018-12-09T08:04:15.994Z,99313.66
2018-12-09T08:06:43.851Z,99326.36
2018-12-09T08:09:12.659Z,99330.20
2018-12-09T08:11:40.451Z,99332.92
2018-12-09T08:14:08.179Z,99341.70
2018-12-09T08:16:36.014Z,99364.36
2018-12-09T08:19:03.845Z,99361.30
2018-12-09T08:21:31.929Z,99371.70
2018-12-09T08:23:59.639Z,99372.97
2018-12-09T08:26:27.379Z,99375.63
2018-12-09T08:28:55.189Z,99382.71
2018-12-09T08:31:22.941Z,99394.68
2018-12-09T08:33:50.855Z,99387.25
2018-12-09T08:36:18.597Z,99391.36
2018-12-09T08:38:46.400Z,99390.97
2018-12-09T08:41:14.100Z,99392.45
2018-12-09T08:43:41.799Z,99396.91
2018-12-09T08:46:09.562Z,99402.16
2018-12-09T08:48:37.277Z,99407.47
2018-12-09T08:51:05.052Z,99417.49
2018-12-09T08:53:32.801Z,99403.90
2018-12-09T08:56:00.714Z,99416.30
2018-12-09T08:58:28.461Z,99421.67
2018-12-09T09:00:56.221Z,99418.13
2018-12-09T09:03:24.057Z,99425.61
2018-12-09T09:05:51.890Z,99439.08
2018-12-09T09:08:19.730Z,99444.41
2018-12-09T09:10:48.869Z,99443.92
2018-12-09T09:13:16.690Z,99444.20
2018-12-09T09:15:45.024Z,99446.59
2018-12-09T09:18:12.790Z,99453.25
2018-12-09T09:20:40.525Z,99457.17
2018-12-09T09:23:08.351Z,99447.52
2018-12-09T09:25:36.123Z,99449.17
2018-12-09T09:28:04.061Z,99460.98
2018-12-09T09:30:31.803Z,99479.51
2018-12-09T09:32:59.669Z,99481.25
2018-12-09T09:35:27.447Z,99478.94
2018-12-09T09:37:55.185Z,99502.78
2018-12-09T09:40:23.031Z,99503.18
2018-12-09T09:42:50.866Z,99491.37
2018-12-09T09:45:18.685Z,99503.95
2018-12-09T09:47:46.481Z,99498.41
2018-12-09T09:50:14.254Z,99515.56
2018-12-09T09:52:42.136Z,99507.25
2018-12-09T09:55:09.885Z,99526.03
2018-12-09T09:57:37.592Z,99531.12
2018-12-09T10:00:07.161Z,99529.96
2018-12-09T10:02:34.913Z,99543.89
2018-12-09T10:05:02.683Z,99539.91
2018-12-09T10:07:30.459Z,99547.44
2018-12-09T10:09:58.232Z,99560.26
2018-12-09T10:12:26.014Z,99565.06
2018-12-09T10:14:53.836Z,99566.44
2018-12-09T10:17:21.563Z,99567.83
2018-12-09T10:19:49.338Z,99570.67
2018-12-09T10:22:17.064Z,99574.74
2018-12-09T10:24:44.834Z,99579.59
2018-12-09T10:27:12.568Z,99577.52
2018-12-09T10:29:40.400Z,99579.61
2018-12-09T10:32:08.197Z,99597.13
2018-12-09T10:34:38.850Z,99600.24
2018-12-09T10:37:05.851Z,99603.69
2018-12-09T10:39:33.662Z,99598.93
2018-12-09T10:42:01.480Z,99610.78
2018-12-09T10:44:29.243Z,99615.02
2018-12-09T10:46:57.127Z,99618.75
2018-12-09T10:49:25.016Z,99621.33
2018-12-09T10:51:52.833Z,99619.72
2018-12-09T10:54:20.601Z,99631.96
2018-12-09T10:56:48.450Z,99632.11
2018-12-09T10:59:16.345Z,99641.30
2018-12-09T11:01:48.699Z,99646.35
2018-12-09T11:04:16.438Z,99651.69
2018-12-09T11:06:44.261Z,99657.28
2018-12-09T11:09:12.041Z,99652.96
2018-12-09T11:11:39.806Z,99655.34
2018-12-09T11:14:08.024Z,99668.52
2018-12-09T11:16:35.822Z,99672.16
2018-12-09T11:19:03.649Z,99674.91
2018-12-09T11:21:31.394Z,99679.69
2018-12-09T11:24:02.364Z,99681.87
2018-12-09T11:26:31.404Z,99672.28
2018-12-09T11:29:01.147Z,99692.23
2018-12-09T11:31:29.078Z,99698.70
2018-12-09T11:33:56.830Z,99692.17
2018-12-09T11:36:24.539Z,99697.33
2018-12-09T11:38:52.334Z,99706.53
2018-12-09T11:41:20.098Z,99717.56
2018-12-09T11:43:47.840Z,99716.53
2018-12-09T11:46:15.583Z,99720.22
2018-12-09T11:48:43.419Z,99725.48
2018-12-09T11:51:11.813Z,99716.09
2018-12-09T11:53:40.453Z,99738.81
2018-12-09T11:56:08.160Z,99733.90
2018-12-09T11:58:35.944Z,99735.55
2018-12-09T12:01:03.814Z,99747.97
2018-12-09T12:03:31.543Z,99761.48
2018-12-09T12:05:59.319Z,99755.75
2018-12-09T12:08:27.109Z,99761.33
2018-12-09T12:10:54.872Z,99765.93
2018-12-09T12:13:23.068Z,99769.42
2018-12-09T12:15:50.886Z,99772.55
2018-12-09T12:18:18.619Z,99779.26
2018-12-09T12:20:46.402Z,99782.86
2018-12-09T12:23:14.187Z,99792.83
2018-12-09T12:25:41.926Z,99800.74
2018-12-09T12:28:09.678Z,99801.34
2018-12-09T12:30:37.443Z,99806.92
2018-12-09T12:33:05.201Z,99811.25
2018-12-09T12:35:32.993Z,99819.86
2018-12-09T12:38:00.725Z,99825.39
2018-12-09T12:40:29.074Z,99836.41
2018-12-09T12:42:57.406Z,99835.72
2018-12-09T12:45:25.571Z,99851.81
2018-12-09T12:47:53.972Z,99842.41
2018-12-09T12:50:21.847Z,99845.35
2018-12-09T12:52:49.628Z,99859.09
2018-12-09T12:55:17.409Z,99871.91
2018-12-09T12:57:45.159Z,99875.54
2018-12-09T13:00:15.888Z,99879.52
2018-12-09T13:02:44.291Z,99888.52
2018-12-09T13:05:12.028Z,99898.31
2018-12-09T13:07:39.760Z,99902.27
2018-12-09T13:10:07.689Z,99906.42
2018-12-09T13:12:35.521Z,99908.12
2018-12-09T13:15:04.021Z,99906.02
2018-12-09T13:17:31.848Z,99917.55
2018-12-09T13:19:59.609Z,99916.55
2018-12-09T13:22:27.419Z,99930.23
2018-12-09T13:24:55.185Z,99927.41
2018-12-09T13:27:22.981Z,99929.79
2018-12-09T13:29:50.696Z,99938.54
2018-12-09T13:32:19.161Z,99942.41
2018-12-09T13:34:46.958Z,99950.53
2018-12-09T13:37:14.763Z,99954.84
2018-12-09T13:39:44.272Z,99955.25
2018-12-09T13:42:12.114Z,99963.52
2018-12-09T13:44:39.860Z,99980.03
2018-12-09T13:47:07.693Z,99977.79
2018-12-09T13:49:35.490Z,99980.54
2018-12-09T13:52:03.274Z,99993.22
2018-12-09T13:54:31.082Z,100011.63
2018-12-09T13:56:58.892Z,100011.66
2018-12-09T13:59:27.620Z,100010.55
2018-12-09T14:01:55.483Z,100020.20
2018-12-09T14:04:23.244Z,100030.69
2018-12-09T14:06:51.074Z,100034.80
2018-12-09T14:09:18.879Z,100035.25
2018-12-09T14:11:46.718Z,100044.94
2018-12-09T14:14:14.518Z,100044.36
2018-12-09T14:16:42.345Z,100062.36
2018-12-09T14:19:10.180Z,100061.48
2018-12-09T14:21:37.968Z,100079.59
2018-12-09T14:24:05.766Z,100079.11
2018-12-09T14:26:33.528Z,100087.70
2018-12-09T14:29:01.582Z,100095.86
2018-12-09T14:31:30.897Z,100110.48
2018-12-09T14:33:58.713Z,100108.55
2018-12-09T14:36:26.460Z,100112.09
2018-12-09T14:38:54.240Z,100120.24
2018-12-09T14:41:22.129Z,100130.67
2018-12-09T14:43:49.912Z,100137.52
2018-12-09T14:46:17.742Z,100139.86
2018-12-09T14:48:45.509Z,100147.12
2018-12-09T14:51:13.273Z,100158.64
2018-12-09T14:53:41.051Z,100204.09
2018-12-09T14:56:08.821Z,100189.56
2018-12-09T14:58:36.640Z,100192.30
2018-12-09T15:01:04.412Z,100206.71
2018-12-09T15:03:32.148Z,100201.74
2018-12-09T15:05:59.927Z,100211.95
2018-12-09T15:08:27.696Z,100222.95
2018-12-09T15:10:55.447Z,100216.42
2018-12-09T15:13:23.250Z,100227.92
2018-12-09T15:15:51.017Z,100235.09
2018-12-09T15:18:18.812Z,100241.84
2018-12-09T15:20:46.654Z,100239.91
2018-12-09T15:23:14.398Z,100247.59
2018-12-09T15:25:42.103Z,100251.95
2018-12-09T15:28:09.907Z,100263.02
2018-12-09T15:30:37.728Z,100268.09
2018-12-09T15:33:05.517Z,100276.57
2018-12-09T15:35:33.280Z,100282.17
2018-12-09T15:38:01.049Z,100293.44
2018-12-09T15:40:28.817Z,100301.95
2018-12-09T15:42:56.620Z,100304.80
2018-12-09T15:45:24.541Z,100319.20
2018-12-09T15:47:52.272Z,100335.17
2018-12-09T15:50:20.056Z,100326.27
2018-12-09T15:52:47.816Z,100337.69
2018-12-09T15:55:16.143Z,100340.20
2018-12-09T15:57:43.925Z,100346.50
2018-12-09T16:00:11.770Z,100355.98
2018-12-09T16:02:39.615Z,100346.86
2018-12-09T16:05:08.516Z,100343.93
2018-12-09T16:07:36.277Z,100364.48
2018-12-09T16:10:05.859Z,100372.34
2018-12-09T16:12:33.605Z,100383.24
2018-12-09T16:15:01.380Z,100387.24
2018-12-09T16:17:29.153Z,100394.07
2018-12-09T16:19:56.966Z,100395.34
2018-12-09T16:22:24.703Z,100394.49
2018-12-09T16:24:52.540Z,100400.27
2018-12-09T16:27:20.306Z,100407.34
2018-12-09T16:29:48.131Z,100427.90
2018-12-09T16:32:15.922Z,100425.35
2018-12-09T16:34:44.249Z,100452.95
2018-12-09T16:37:12.078Z,100468.38
2018-12-09T16:39:39.812Z,100473.02
2018-12-09T16:42:07.572Z,100482.45
2018-12-09T16:44:35.322Z,100482.92
2018-12-09T16:47:03.119Z,100484.80
2018-12-09T16:49:30.844Z,100485.62
2018-12-09T16:51:58.629Z,100490.92
2018-12-09T16:54:26.380Z,100483.03
2018-12-09T16:56:54.137Z,100483.58
2018-12-09T16:59:21.930Z,100494.00
2018-12-09T17:01:49.743Z,100498.39
2018-12-09T17:04:17.492Z,100496.39
2018-12-09T17:06:45.235Z,100503.47
2018-12-09T17:09:13.041Z,100511.36
2018-12-09T17:11:40.797Z,100517.09
2018-12-09T17:14:08.588Z,100523.87
2018-12-09T17:16:36.405Z,100529.03
2018-12-09T17:19:04.158Z,100541.45
2018-12-09T17:21:32.090Z,100556.70
2018-12-09T17:23:59.962Z,100551.23
2018-12-09T17:26:28.102Z,100574.06
2018-12-09T17:28:55.874Z,100575.98
2018-12-09T17:31:23.633Z,100577.48
2018-12-09T17:33:51.670Z,100583.96
2018-12-09T17:36:19.432Z,100589.84
2018-12-09T17:38:47.164Z,100614.96
2018-12-09T17:41:15.002Z,100620.53
2018-12-09T17:43:42.781Z,100640.36
2018-12-09T17:46:10.525Z,100649.44
2018-12-09T17:48:38.367Z,100654.75
2018-12-09T17:51:06.161Z,100656.06
2018-12-09T17:53:33.916Z,100660.58
2018-12-09T17:56:01.701Z,100669.14
2018-12-09T17:58:29.423Z,100674.37
2018-12-09T18:00:57.161Z,100683.18
2018-12-09T18:03:24.991Z,100692.95
2018-12-09T18:05:52.741Z,100714.48
2018-12-09T18:08:20.499Z,100700.73
2018-12-09T18:10:48.230Z,100715.16
2018-12-09T18:13:15.997Z,100699.62
2018-12-09T18:15:45.908Z,100702.50
2018-12-09T18:18:13.697Z,100704.77
2018-12-09T18:20:41.638Z,100707.05
2018-12-09T18:23:10.013Z,100708.58
2018-12-09T18:25:37.717Z,100710.31
2018-12-09T18:28:05.522Z,100720.35
2018-12-09T18:30:33.316Z,100741.20
2018-12-09T18:33:02.131Z,100745.99
2018-12-09T18:35:30.077Z,100760.88
2018-12-09T18:37:58.180Z,100748.42
2018-12-09T18:40:25.966Z,100752.69
2018-12-09T18:42:53.742Z,100757.16
2018-12-09T18:45:21.545Z,100772.77
2018-12-09T18:47:49.378Z,100779.30
2018-12-09T18:50:17.179Z,100796.19
2018-12-09T18:52:44.950Z,100789.90
2018-12-09T18:55:12.809Z,100797.74
2018-12-09T18:57:40.597Z,100786.06
2018-12-09T19:00:08.481Z,100804.23
2018-12-09T19:02:36.249Z,100809.66
2018-12-09T19:05:04.726Z,100806.90
2018-12-09T19:07:32.583Z,100814.91
2018-12-09T19:10:02.241Z,100821.17
2018-12-09T19:12:30.282Z,100830.74
2018-12-09T19:14:58.057Z,100836.73
2018-12-09T19:17:25.870Z,100844.29
2018-12-09T19:19:53.661Z,100842.23
2018-12-09T19:22:21.523Z,100850.75
2018-12-09T19:24:49.294Z,100857.14
2018-12-09T19:27:17.061Z,100855.02
2018-12-09T19:29:44.788Z,100851.02
2018-12-09T19:32:12.581Z,100865.41
2018-12-09T19:34:40.346Z,100859.92
2018-12-09T19:37:08.256Z,100871.00
2018-12-09T19:39:36.055Z,100880.77
2018-12-09T19:42:03.820Z,100888.20
2018-12-09T19:44:31.538Z,100895.78
2018-12-09T19:46:59.725Z,100899.90
2018-12-09T19:49:29.886Z,100900.37
2018-12-09T19:51:57.652Z,100902.70
2018-12-09T19:54:26.046Z,100918.17
2018-12-09T19:56:53.854Z,100921.53
2018-12-09T19:59:21.933Z,100918.98
2018-12-09T20:01:49.802Z,100929.95
2018-12-09T20:04:17.623Z,100934.20
2018-12-09T20:06:45.413Z,100918.98
2018-12-09T20:09:13.196Z,100942.00
2018-12-09T20:11:40.934Z,100938.39
2018-12-09T20:14:08.732Z,100949.33
2018-12-09T20:16:36.555Z,100974.41
2018-12-09T20:19:04.332Z,100991.70
2018-12-09T20:21:32.233Z,100997.66
2018-12-09T20:24:00.220Z,100990.56
2018-12-09T20:26:27.966Z,100987.98
2018-12-09T20:28:55.912Z,100977.55
2018-12-09T20:31:23.782Z,100985.95
2018-12-09T20:33:51.582Z,100991.77
2018-12-09T20:36:19.419Z,100989.33
2018-12-09T20:38:47.185Z,100995.05
2018-12-09T20:41:14.961Z,101005.48
2018-12-09T20:43:42.737Z,101005.56
2018-12-09T20:46:10.513Z,101014.16
2018-12-09T20:48:38.301Z,101015.78
2018-12-09T20:51:06.897Z,101010.11
2018-12-09T20:53:34.657Z,101012.82
2018-12-09T20:56:02.405Z,101021.38
2018-12-09T20:58:31.576Z,101013.56
2018-12-09T21:00:59.301Z,101018.70
2018-12-09T21:03:27.045Z,101032.12
2018-12-09T21:05:54.780Z,101023.45
2018-12-09T21:08:23.623Z,101032.02
2018-12-09T21:10:51.446Z,101036.27
2018-12-09T21:13:19.197Z,101037.81
2018-12-09T21:15:47.196Z,101042.15
2018-12-09T21:18:15.048Z,101046.46
2018-12-09T21:20:44.946Z,101057.66
2018-12-09T21:23:12.752Z,101061.66
2018-12-09T21:25:40.553Z,101067.69
2018-12-09T21:28:08.334Z,101075.95
2018-12-09T21:30:36.132Z,101078.23
2018-12-09T21:33:03.967Z,101081.51
2018-12-09T21:35:32.120Z,101074.79
2018-12-09T21:37:59.953Z,101088.29
2018-12-09T21:40:27.717Z,101091.38
2018-12-09T21:42:55.489Z,101099.26
2018-12-09T21:45:23.215Z,101097.55
2018-12-09T21:47:50.976Z,101093.86
2018-12-09T21:50:18.844Z,101092.25
2018-12-09T21:52:46.684Z,101088.95
2018-12-09T21:55:14.490Z,101096.50
2018-12-09T21:57:42.342Z,101098.69
2018-12-09T22:00:10.242Z,101105.89
2018-12-09T22:02:38.850Z,101113.49
2018-12-09T22:05:07.159Z,101116.84
2018-12-09T22:07:34.933Z,101121.98
2018-12-09T22:10:02.929Z,101119.62
2018-12-09T22:12:31.080Z,101131.55
2018-12-09T22:14:58.916Z,101140.63
2018-12-09T22:17:27.395Z,101179.28
2018-12-09T22:19:55.198Z,101181.86
2018-12-09T22:22:23.050Z,101155.61
2018-12-09T22:24:50.812Z,101157.39
2018-12-09T22:27:18.605Z,101168.78
2018-12-09T22:29:46.382Z,101172.23
2018-12-09T22:32:14.221Z,101179.45
2018-12-09T22:34:42.092Z,101184.11
2018-12-09T22:37:09.874Z,101154.89
2018-12-09T22:39:37.646Z,101174.48
2018-12-09T22:42:05.423Z,101181.02
2018-12-09T22:44:33.281Z,101181.02
2018-12-09T22:47:01.031Z,101198.69
2018-12-09T22:49:28.740Z,101230.27
2018-12-09T22:51:57.108Z,101216.98
2018-12-09T22:54:24.894Z,101206.06
2018-12-09T22:56:52.676Z,101211.17
2018-12-09T22:59:20.441Z,101220.75
2018-12-09T23:01:53.765Z,101235.50
2018-12-09T23:04:21.544Z,101249.86
2018-12-09T23:06:49.326Z,101225.59
2018-12-09T23:09:18.127Z,101225.19
2018-12-09T23:11:45.897Z,101217.20
2018-12-09T23:14:13.611Z,101235.17
2018-12-09T23:16:41.584Z,101233.86
2018-12-09T23:19:09.332Z,101234.11
2018-12-09T23:21:37.116Z,101230.78
2018-12-09T23:24:04.860Z,101231.27
2018-12-09T23:26:33.145Z,101246.89
2018-12-09T23:29:00.892Z,101266.25
2018-12-09T23:31:28.714Z,101251.59
2018-12-09T23:33:56.516Z,101284.25
2018-12-09T23:36:24.297Z,101286.88
2018-12-09T23:38:52.048Z,101289.77
2018-12-09T23:41:19.832Z,101305.48
2018-12-09T23:43:47.649Z,101300.14
2018-12-09T23:46:15.375Z,101297.66
2018-12-09T23:48:43.234Z,101291.83
2018-12-09T23:51:11.008Z,101273.84
2018-12-09T23:53:38.735Z,101275.98
2018-12-09T23:56:06.456Z,101280.08
2018-12-09T23:58:34.200Z,101279.77
